sensor_id;sensor_type;location;lat;lon;timestamp;pressure;altitude;pressure_sealevel;temperature;humidity
10978;BME280;5542;48.272;10.794;2022-08-20T00:00:55;95662.75;;;17.93;95.72
10978;BME280;5542;48.272;10.794;2022-08-20T00:03:23;95659.53;;;17.96;95.64
10978;BME280;5542;48.272;10.794;2022-08-20T00:05:57;95662.22;;;17.91;95.57
10978;BME280;5542;48.272;10.794;2022-08-20T00:08:24;95668.56;;;18.00;94.65
10978;BME280;5542;48.272;10.794;2022-08-20T00:10:51;95664.28;;;17.99;94.58
10978;BME280;5542;48.272;10.794;2022-08-20T00:13:20;95672.56;;;17.98;95.26
10978;BME280;5542;48.272;10.794;2022-08-20T00:15:47;95672.84;;;17.96;95.78
10978;BME280;5542;48.272;10.794;2022-08-20T00:18:14;95672.25;;;18.04;94.45
10978;BME280;5542;48.272;10.794;2022-08-20T00:20:45;95672.50;;;18.08;93.86
10978;BME280;5542;48.272;10.794;2022-08-20T00:23:13;95663.75;;;18.02;94.87
10978;BME280;5542;48.272;10.794;2022-08-20T00:25:42;95663.25;;;18.00;94.74
10978;BME280;5542;48.272;10.794;2022-08-20T00:28:09;95676.25;;;18.02;95.23
10978;BME280;5542;48.272;10.794;2022-08-20T00:30:39;95674.38;;;18.02;94.96
10978;BME280;5542;48.272;10.794;2022-08-20T00:33:14;95674.13;;;17.99;95.29
10978;BME280;5542;48.272;10.794;2022-08-20T00:35:44;95673.81;;;18.10;94.05
10978;BME280;5542;48.272;10.794;2022-08-20T00:38:12;95668.53;;;18.05;94.35
10978;BME280;5542;48.272;10.794;2022-08-20T00:40:41;95666.69;;;18.01;94.88
10978;BME280;5542;48.272;10.794;2022-08-20T00:43:29;95657.59;;;18.07;94.21
10978;BME280;5542;48.272;10.794;2022-08-20T00:45:58;95662.97;;;18.02;95.00
10978;BME280;5542;48.272;10.794;2022-08-20T00:48:27;95661.88;;;18.03;94.71
10978;BME280;5542;48.272;10.794;2022-08-20T00:51:03;95657.09;;;18.05;94.60
10978;BME280;5542;48.272;10.794;2022-08-20T00:53:32;95657.31;;;18.08;94.26
10978;BME280;5542;48.272;10.794;2022-08-20T00:55:59;95651.44;;;18.11;94.04
10978;BME280;5542;48.272;10.794;2022-08-20T00:58:27;95641.88;;;18.10;93.47
10978;BME280;5542;48.272;10.794;2022-08-20T01:00:54;95636.28;;;18.12;93.41
10978;BME280;5542;48.272;10.794;2022-08-20T01:03:22;95630.19;;;18.06;94.16
10978;BME280;5542;48.272;10.794;2022-08-20T01:05:50;95641.13;;;18.05;94.04
10978;BME280;5542;48.272;10.794;2022-08-20T01:08:19;95639.50;;;18.04;93.93
10978;BME280;5542;48.272;10.794;2022-08-20T01:10:49;95641.34;;;18.08;93.60
10978;BME280;5542;48.272;10.794;2022-08-20T01:13:20;95646.66;;;18.08;93.92
10978;BME280;5542;48.272;10.794;2022-08-20T01:15:49;95638.50;;;18.00;94.17
10978;BME280;5542;48.272;10.794;2022-08-20T01:18:20;95644.63;;;18.00;94.20
10978;BME280;5542;48.272;10.794;2022-08-20T01:20:51;95640.56;;;18.08;93.39
10978;BME280;5542;48.272;10.794;2022-08-20T01:23:21;95638.34;;;18.20;92.55
10978;BME280;5542;48.272;10.794;2022-08-20T01:26:02;95639.50;;;18.09;92.91
10978;BME280;5542;48.272;10.794;2022-08-20T01:28:36;95639.72;;;18.12;92.95
10978;BME280;5542;48.272;10.794;2022-08-20T01:31:04;95646.44;;;18.05;93.52
10978;BME280;5542;48.272;10.794;2022-08-20T01:33:31;95648.31;;;17.99;94.39
10978;BME280;5542;48.272;10.794;2022-08-20T01:35:58;95643.78;;;18.05;93.81
10978;BME280;5542;48.272;10.794;2022-08-20T01:38:26;95651.53;;;18.01;94.49
10978;BME280;5542;48.272;10.794;2022-08-20T01:41:27;95651.47;;;18.06;94.08
10978;BME280;5542;48.272;10.794;2022-08-20T01:43:56;95654.97;;;18.02;94.05
10978;BME280;5542;48.272;10.794;2022-08-20T01:46:25;95651.81;;;18.00;94.59
10978;BME280;5542;48.272;10.794;2022-08-20T01:48:53;95654.47;;;18.00;94.14
10978;BME280;5542;48.272;10.794;2022-08-20T01:51:24;95651.53;;;18.01;94.22
10978;BME280;5542;48.272;10.794;2022-08-20T01:53:54;95654.16;;;18.06;93.70
10978;BME280;5542;48.272;10.794;2022-08-20T01:56:24;95654.69;;;18.03;93.86
10978;BME280;5542;48.272;10.794;2022-08-20T01:58:54;95651.53;;;18.01;94.39
10978;BME280;5542;48.272;10.794;2022-08-20T02:01:24;95662.72;;;17.98;94.59
10978;BME280;5542;48.272;10.794;2022-08-20T02:03:52;95657.63;;;18.02;94.21
10978;BME280;5542;48.272;10.794;2022-08-20T02:06:21;95658.97;;;18.04;93.90
10978;BME280;5542;48.272;10.794;2022-08-20T02:08:51;95664.78;;;18.06;93.30
10978;BME280;5542;48.272;10.794;2022-08-20T02:11:19;95676.53;;;18.00;93.82
10978;BME280;5542;48.272;10.794;2022-08-20T02:13:45;95674.69;;;18.01;93.95
10978;BME280;5542;48.272;10.794;2022-08-20T02:16:15;95671.47;;;17.99;94.26
10978;BME280;5542;48.272;10.794;2022-08-20T02:18:41;95670.38;;;18.10;93.13
10978;BME280;5542;48.272;10.794;2022-08-20T02:21:08;95667.19;;;18.03;93.41
10978;BME280;5542;48.272;10.794;2022-08-20T02:23:35;95670.66;;;18.03;93.86
10978;BME280;5542;48.272;10.794;2022-08-20T02:26:01;95667.19;;;18.03;93.30
10978;BME280;5542;48.272;10.794;2022-08-20T02:28:28;95669.34;;;18.01;93.76
10978;BME280;5542;48.272;10.794;2022-08-20T02:30:54;95669.06;;;18.02;93.44
10978;BME280;5542;48.272;10.794;2022-08-20T02:33:23;95672.00;;;18.01;93.70
10978;BME280;5542;48.272;10.794;2022-08-20T02:35:50;95674.09;;;18.09;93.15
10978;BME280;5542;48.272;10.794;2022-08-20T02:38:18;95668.91;;;18.23;91.60
10978;BME280;5542;48.272;10.794;2022-08-20T02:40:45;95669.22;;;18.21;91.78
10978;BME280;5542;48.272;10.794;2022-08-20T02:43:13;95670.13;;;18.06;92.98
10978;BME280;5542;48.272;10.794;2022-08-20T02:45:42;95669.06;;;18.02;93.44
10978;BME280;5542;48.272;10.794;2022-08-20T02:48:10;95674.09;;;18.09;93.15
10978;BME280;5542;48.272;10.794;2022-08-20T02:50:47;95668.97;;;18.17;91.81
10978;BME280;5542;48.272;10.794;2022-08-20T02:53:15;95667.97;;;18.08;92.19
10978;BME280;5542;48.272;10.794;2022-08-20T02:55:42;95671.69;;;18.07;92.54
10978;BME280;5542;48.272;10.794;2022-08-20T02:58:09;95667.75;;;18.05;92.59
10978;BME280;5542;48.272;10.794;2022-08-20T03:00:36;95663.72;;;18.07;92.42
10978;BME280;5542;48.272;10.794;2022-08-20T03:03:03;95666.69;;;18.01;93.04
10978;BME280;5542;48.272;10.794;2022-08-20T03:05:30;95656.78;;;18.11;92.54
10978;BME280;5542;48.272;10.794;2022-08-20T03:07:58;95659.16;;;18.13;91.95
10978;BME280;5542;48.272;10.794;2022-08-20T03:10:26;95658.63;;;18.11;91.50
10978;BME280;5542;48.272;10.794;2022-08-20T03:12:53;95659.44;;;18.11;91.46
10978;BME280;5542;48.272;10.794;2022-08-20T03:15:20;95660.28;;;18.02;92.40
10978;BME280;5542;48.272;10.794;2022-08-20T03:17:47;95659.19;;;18.08;91.59
10978;BME280;5542;48.272;10.794;2022-08-20T03:20:13;95660.34;;;17.97;92.50
10978;BME280;5542;48.272;10.794;2022-08-20T03:22:40;95656.63;;;17.92;93.13
10978;BME280;5542;48.272;10.794;2022-08-20T03:25:09;95660.34;;;17.97;93.01
10978;BME280;5542;48.272;10.794;2022-08-20T03:27:36;95657.66;;;17.97;92.79
10978;BME280;5542;48.272;10.794;2022-08-20T03:30:06;95660.63;;;17.95;92.97
10978;BME280;5542;48.272;10.794;2022-08-20T03:32:33;95666.97;;;17.94;93.24
10978;BME280;5542;48.272;10.794;2022-08-20T03:35:00;95678.72;;;17.93;93.17
10978;BME280;5542;48.272;10.794;2022-08-20T03:37:29;95674.72;;;17.96;93.02
10978;BME280;5542;48.272;10.794;2022-08-20T03:39:56;95680.28;;;17.94;92.52
10978;BME280;5542;48.272;10.794;2022-08-20T03:42:24;95679.25;;;17.95;92.05
10978;BME280;5542;48.272;10.794;2022-08-20T03:44:51;95683.22;;;17.92;92.18
10978;BME280;5542;48.272;10.794;2022-08-20T03:47:18;95677.38;;;17.96;92.05
10978;BME280;5542;48.272;10.794;2022-08-20T03:49:45;95680.81;;;17.96;92.60
10978;BME280;5542;48.272;10.794;2022-08-20T03:52:11;95681.88;;;18.00;91.89
10978;BME280;5542;48.272;10.794;2022-08-20T03:54:38;95684.56;;;17.95;92.12
10978;BME280;5542;48.272;10.794;2022-08-20T03:57:05;95690.97;;;17.89;92.84
10978;BME280;5542;48.272;10.794;2022-08-20T03:59:33;95686.25;;;17.81;93.45
10978;BME280;5542;48.272;10.794;2022-08-20T04:02:00;95698.97;;;17.84;93.47
10978;BME280;5542;48.272;10.794;2022-08-20T04:04:26;95703.50;;;17.83;92.76
10978;BME280;5542;48.272;10.794;2022-08-20T04:06:53;95703.81;;;17.77;93.87
10978;BME280;5542;48.272;10.794;2022-08-20T04:09:20;95700.56;;;17.85;93.14
10978;BME280;5542;48.272;10.794;2022-08-20T04:11:46;95703.00;;;17.81;93.18
10978;BME280;5542;48.272;10.794;2022-08-20T04:14:14;95708.56;;;17.80;93.41
10978;BME280;5542;48.272;10.794;2022-08-20T04:16:42;95710.72;;;17.78;94.08
10978;BME280;5542;48.272;10.794;2022-08-20T04:19:09;95705.13;;;17.79;94.20
10978;BME280;5542;48.272;10.794;2022-08-20T04:21:36;95708.56;;;17.80;93.50
10978;BME280;5542;48.272;10.794;2022-08-20T04:24:04;95705.34;;;17.88;92.86
10978;BME280;5542;48.272;10.794;2022-08-20T04:26:31;95710.38;;;17.89;92.34
10978;BME280;5542;48.272;10.794;2022-08-20T04:29:01;95709.63;;;17.84;93.02
10978;BME280;5542;48.272;10.794;2022-08-20T04:31:28;95705.38;;;17.83;93.16
10978;BME280;5542;48.272;10.794;2022-08-20T04:33:59;95714.94;;;17.84;93.30
10978;BME280;5542;48.272;10.794;2022-08-20T04:36:25;95714.88;;;17.94;92.06
10978;BME280;5542;48.272;10.794;2022-08-20T04:38:52;95725.28;;;17.90;92.87
10978;BME280;5542;48.272;10.794;2022-08-20T04:41:19;95729.78;;;17.95;92.50
10978;BME280;5542;48.272;10.794;2022-08-20T04:43:46;95721.59;;;17.86;92.50
10978;BME280;5542;48.272;10.794;2022-08-20T04:46:13;95722.69;;;17.80;93.45
10978;BME280;5542;48.272;10.794;2022-08-20T04:48:39;95723.44;;;17.91;92.46
10978;BME280;5542;48.272;10.794;2022-08-20T04:51:08;95722.41;;;17.82;93.13
10978;BME280;5542;48.272;10.794;2022-08-20T04:53:34;95730.94;;;17.79;93.80
10978;BME280;5542;48.272;10.794;2022-08-20T04:56:02;95732.16;;;17.97;92.11
10978;BME280;5542;48.272;10.794;2022-08-20T04:58:30;95734.03;;;17.96;91.47
10978;BME280;5542;48.272;10.794;2022-08-20T05:01:00;95739.16;;;17.82;92.69
10978;BME280;5542;48.272;10.794;2022-08-20T05:03:27;95739.91;;;17.93;92.32
10978;BME280;5542;48.272;10.794;2022-08-20T05:05:53;95747.41;;;17.86;92.76
10978;BME280;5542;48.272;10.794;2022-08-20T05:08:23;95746.28;;;17.97;91.97
10978;BME280;5542;48.272;10.794;2022-08-20T05:10:51;95749.75;;;17.92;92.22
10978;BME280;5542;48.272;10.794;2022-08-20T05:13:18;95749.50;;;17.89;93.05
10978;BME280;5542;48.272;10.794;2022-08-20T05:15:45;95758.25;;;17.89;93.37
10978;BME280;5542;48.272;10.794;2022-08-20T05:18:15;95755.31;;;17.96;92.78
10978;BME280;5542;48.272;10.794;2022-08-20T05:20:43;95761.97;;;17.94;92.85
10978;BME280;5542;48.272;10.794;2022-08-20T05:23:11;95759.59;;;17.92;93.23
10978;BME280;5542;48.272;10.794;2022-08-20T05:25:41;95757.72;;;17.98;93.00
10978;BME280;5542;48.272;10.794;2022-08-20T05:28:10;95759.81;;;18.06;92.10
10978;BME280;5542;48.272;10.794;2022-08-20T05:30:38;95763.22;;;18.11;91.48
10978;BME280;5542;48.272;10.794;2022-08-20T05:33:08;95761.69;;;18.00;92.30
10978;BME280;5542;48.272;10.794;2022-08-20T05:35:36;95768.59;;;18.01;92.46
10978;BME280;5542;48.272;10.794;2022-08-20T05:38:04;95768.34;;;17.98;92.29
10978;BME280;5542;48.272;10.794;2022-08-20T05:40:31;95764.09;;;17.97;92.11
10978;BME280;5542;48.272;10.794;2022-08-20T05:42:59;95761.69;;;18.00;92.79
10978;BME280;5542;48.272;10.794;2022-08-20T05:45:29;95760.66;;;17.96;92.51
10978;BME280;5542;48.272;10.794;2022-08-20T05:47:55;95760.59;;;18.06;92.00
10978;BME280;5542;48.272;10.794;2022-08-20T05:50:22;95763.56;;;18.00;92.38
10978;BME280;5542;48.272;10.794;2022-08-20T05:52:49;95763.31;;;17.96;92.76
10978;BME280;5542;48.272;10.794;2022-08-20T05:55:16;95756.88;;;18.02;92.37
10978;BME280;5542;48.272;10.794;2022-08-20T05:57:43;95760.84;;;18.10;91.35
10978;BME280;5542;48.272;10.794;2022-08-20T06:00:13;95764.59;;;18.09;91.24
10978;BME280;5542;48.272;10.794;2022-08-20T06:02:40;95761.09;;;18.08;90.86
10978;BME280;5542;48.272;10.794;2022-08-20T06:05:24;95757.38;;;18.14;90.90
10978;BME280;5542;48.272;10.794;2022-08-20T06:07:52;95760.09;;;18.04;91.59
10978;BME280;5542;48.272;10.794;2022-08-20T06:10:19;95758.25;;;18.00;91.58
10978;BME280;5542;48.272;10.794;2022-08-20T06:12:45;95756.63;;;17.99;92.37
10978;BME280;5542;48.272;10.794;2022-08-20T06:15:13;95756.66;;;17.94;92.97
10978;BME280;5542;48.272;10.794;2022-08-20T06:17:40;95758.47;;;18.03;92.39
10978;BME280;5542;48.272;10.794;2022-08-20T06:20:08;95756.88;;;18.02;92.09
10978;BME280;5542;48.272;10.794;2022-08-20T06:22:35;95756.38;;;18.00;92.56
10978;BME280;5542;48.272;10.794;2022-08-20T06:25:03;95760.09;;;17.99;93.51
10978;BME280;5542;48.272;10.794;2022-08-20T06:27:30;95768.25;;;18.13;92.77
10978;BME280;5542;48.272;10.794;2022-08-20T06:29:57;95766.97;;;18.10;92.72
10978;BME280;5542;48.272;10.794;2022-08-20T06:32:25;95770.69;;;18.09;92.67
10978;BME280;5542;48.272;10.794;2022-08-20T06:34:52;95774.66;;;18.12;92.39
10978;BME280;5542;48.272;10.794;2022-08-20T06:37:20;95778.59;;;18.25;91.11
10978;BME280;5542;48.272;10.794;2022-08-20T06:39:47;95780.47;;;18.24;90.81
10978;BME280;5542;48.272;10.794;2022-08-20T06:42:14;95778.09;;;18.17;91.95
10978;BME280;5542;48.272;10.794;2022-08-20T06:44:41;95786.59;;;18.20;92.73
10978;BME280;5542;48.272;10.794;2022-08-20T06:47:07;95783.91;;;18.25;92.94
10978;BME280;5542;48.272;10.794;2022-08-20T06:49:35;95788.13;;;18.31;92.99
10978;BME280;5542;48.272;10.794;2022-08-20T06:52:03;95783.84;;;18.35;92.39
10978;BME280;5542;48.272;10.794;2022-08-20T06:54:30;95782.75;;;18.41;91.04
10978;BME280;5542;48.272;10.794;2022-08-20T06:56:57;95784.06;;;18.43;91.71
10978;BME280;5542;48.272;10.794;2022-08-20T06:59:23;95790.59;;;18.66;89.36
10978;BME280;5542;48.272;10.794;2022-08-20T07:01:50;95784.75;;;18.59;89.37
10978;BME280;5542;48.272;10.794;2022-08-20T07:04:21;95786.34;;;18.60;89.09
10978;BME280;5542;48.272;10.794;2022-08-20T07:06:49;95788.97;;;18.65;89.03
10978;BME280;5542;48.272;10.794;2022-08-20T07:09:16;95791.91;;;18.69;89.12
10978;BME280;5542;48.272;10.794;2022-08-20T07:11:42;95788.38;;;18.79;88.51
10978;BME280;5542;48.272;10.794;2022-08-20T07:14:09;95791.06;;;18.74;89.38
10978;BME280;5542;48.272;10.794;2022-08-20T07:16:36;95784.38;;;18.81;89.21
10978;BME280;5542;48.272;10.794;2022-08-20T07:19:03;95782.53;;;18.77;89.86
10978;BME280;5542;48.272;10.794;2022-08-20T07:21:29;95780.63;;;18.82;90.04
10978;BME280;5542;48.272;10.794;2022-08-20T07:23:58;95786.69;;;18.88;89.80
10978;BME280;5542;48.272;10.794;2022-08-20T07:26:24;95789.81;;;19.00;89.72
10978;BME280;5542;48.272;10.794;2022-08-20T07:28:51;95790.84;;;19.04;88.51
10978;BME280;5542;48.272;10.794;2022-08-20T07:31:18;95789.53;;;19.02;89.06
10978;BME280;5542;48.272;10.794;2022-08-20T07:34:03;95797.16;;;19.13;87.14
10978;BME280;5542;48.272;10.794;2022-08-20T07:36:30;95793.06;;;19.21;87.14
10978;BME280;5542;48.272;10.794;2022-08-20T07:38:59;95789.56;;;19.26;87.88
10978;BME280;5542;48.272;10.794;2022-08-20T07:41:26;95800.09;;;19.41;86.82
10978;BME280;5542;48.272;10.794;2022-08-20T07:43:52;95797.09;;;19.48;84.29
10978;BME280;5542;48.272;10.794;2022-08-20T07:46:20;95790.69;;;19.49;86.09
10978;BME280;5542;48.272;10.794;2022-08-20T07:48:48;95796.75;;;19.54;85.84
10978;BME280;5542;48.272;10.794;2022-08-20T07:51:17;95799.91;;;19.61;85.02
10978;BME280;5542;48.272;10.794;2022-08-20T07:53:45;95803.56;;;19.71;85.43
10978;BME280;5542;48.272;10.794;2022-08-20T07:56:17;95802.53;;;19.90;84.01
10978;BME280;5542;48.272;10.794;2022-08-20T07:58:47;95800.81;;;20.00;82.41
10978;BME280;5542;48.272;10.794;2022-08-20T08:01:15;95812.34;;;19.95;84.15
10978;BME280;5542;48.272;10.794;2022-08-20T08:03:42;95813.25;;;20.09;83.34
10978;BME280;5542;48.272;10.794;2022-08-20T08:06:08;95813.59;;;20.21;81.90
10978;BME280;5542;48.272;10.794;2022-08-20T08:08:36;95818.00;;;20.31;83.78
10978;BME280;5542;48.272;10.794;2022-08-20T08:11:04;95816.41;;;20.54;84.09
10978;BME280;5542;48.272;10.794;2022-08-20T08:13:37;95811.03;;;20.92;80.00
10978;BME280;5542;48.272;10.794;2022-08-20T08:16:06;95819.97;;;21.01;77.83
10978;BME280;5542;48.272;10.794;2022-08-20T08:18:35;95811.53;;;21.27;73.68
10978;BME280;5542;48.272;10.794;2022-08-20T08:21:04;95817.44;;;21.10;75.77
10978;BME280;5542;48.272;10.794;2022-08-20T08:23:31;95813.66;;;21.11;77.47
10978;BME280;5542;48.272;10.794;2022-08-20T08:25:58;95811.13;;;21.19;77.15
10978;BME280;5542;48.272;10.794;2022-08-20T08:28:25;95814.16;;;21.32;76.98
10978;BME280;5542;48.272;10.794;2022-08-20T08:30:56;95820.94;;;21.57;75.91
10978;BME280;5542;48.272;10.794;2022-08-20T08:33:25;95822.03;;;21.69;75.59
10978;BME280;5542;48.272;10.794;2022-08-20T08:35:57;95823.22;;;21.63;74.60
10978;BME280;5542;48.272;10.794;2022-08-20T08:38:24;95830.63;;;21.53;75.42
10978;BME280;5542;48.272;10.794;2022-08-20T08:40:54;95830.75;;;21.61;75.42
10978;BME280;5542;48.272;10.794;2022-08-20T08:43:22;95835.91;;;21.71;73.01
10978;BME280;5542;48.272;10.794;2022-08-20T08:45:56;95828.09;;;21.89;71.30
10978;BME280;5542;48.272;10.794;2022-08-20T08:48:31;95829.56;;;21.81;71.61
10978;BME280;5542;48.272;10.794;2022-08-20T08:50:59;95818.78;;;21.86;72.66
10978;BME280;5542;48.272;10.794;2022-08-20T08:53:31;95826.00;;;21.86;70.88
10978;BME280;5542;48.272;10.794;2022-08-20T08:56:00;95830.25;;;21.73;72.99
10978;BME280;5542;48.272;10.794;2022-08-20T08:58:27;95826.41;;;21.65;73.04
10978;BME280;5542;48.272;10.794;2022-08-20T09:00:55;95832.25;;;21.67;75.09
10978;BME280;5542;48.272;10.794;2022-08-20T09:03:25;95832.16;;;21.72;75.60
10978;BME280;5542;48.272;10.794;2022-08-20T09:05:56;95827.09;;;21.71;75.82
10978;BME280;5542;48.272;10.794;2022-08-20T09:08:27;95825.50;;;21.84;72.33
10978;BME280;5542;48.272;10.794;2022-08-20T09:11:00;95836.63;;;21.77;71.05
10978;BME280;5542;48.272;10.794;2022-08-20T09:13:27;95830.66;;;21.66;72.47
10978;BME280;5542;48.272;10.794;2022-08-20T09:15:56;95835.50;;;21.64;72.86
10978;BME280;5542;48.272;10.794;2022-08-20T09:18:22;95835.72;;;21.68;71.34
10978;BME280;5542;48.272;10.794;2022-08-20T09:20:49;95833.31;;;21.53;71.83
10978;BME280;5542;48.272;10.794;2022-08-20T09:23:16;95839.44;;;21.39;72.27
10978;BME280;5542;48.272;10.794;2022-08-20T09:25:42;95846.00;;;21.47;72.36
10978;BME280;5542;48.272;10.794;2022-08-20T09:28:09;95838.44;;;21.35;72.02
10978;BME280;5542;48.272;10.794;2022-08-20T09:30:36;95838.25;;;21.32;73.36
10978;BME280;5542;48.272;10.794;2022-08-20T09:33:04;95837.28;;;21.22;74.63
10978;BME280;5542;48.272;10.794;2022-08-20T09:35:31;95840.25;;;21.21;75.27
10978;BME280;5542;48.272;10.794;2022-08-20T09:37:58;95832.91;;;21.27;73.57
10978;BME280;5542;48.272;10.794;2022-08-20T09:40:25;95837.19;;;21.28;74.06
10978;BME280;5542;48.272;10.794;2022-08-20T09:42:51;95832.34;;;21.30;74.73
10978;BME280;5542;48.272;10.794;2022-08-20T09:45:18;95823.91;;;21.22;74.50
10978;BME280;5542;48.272;10.794;2022-08-20T09:47:45;95829.91;;;21.33;75.72
10978;BME280;5542;48.272;10.794;2022-08-20T09:50:13;95826.75;;;21.45;73.42
10978;BME280;5542;48.272;10.794;2022-08-20T09:52:41;95826.34;;;21.38;73.29
10978;BME280;5542;48.272;10.794;2022-08-20T09:55:16;95822.09;;;21.37;74.82
10978;BME280;5542;48.272;10.794;2022-08-20T09:57:43;95827.16;;;21.38;74.55
10978;BME280;5542;48.272;10.794;2022-08-20T10:00:11;95834.91;;;21.54;76.22
10978;BME280;5542;48.272;10.794;2022-08-20T10:02:38;95823.13;;;21.82;75.88
10978;BME280;5542;48.272;10.794;2022-08-20T10:05:05;95819.09;;;21.98;73.05
10978;BME280;5542;48.272;10.794;2022-08-20T10:07:36;95822.03;;;22.11;70.48
10978;BME280;5542;48.272;10.794;2022-08-20T10:10:04;95820.56;;;22.18;71.57
10978;BME280;5542;48.272;10.794;2022-08-20T10:12:31;95824.81;;;22.33;70.67
10978;BME280;5542;48.272;10.794;2022-08-20T10:14:57;95813.97;;;22.52;68.13
10978;BME280;5542;48.272;10.794;2022-08-20T10:17:24;95810.69;;;22.55;67.32
10978;BME280;5542;48.272;10.794;2022-08-20T10:19:50;95818.50;;;22.65;67.01
10978;BME280;5542;48.272;10.794;2022-08-20T10:22:17;95814.44;;;22.54;68.07
10978;BME280;5542;48.272;10.794;2022-08-20T10:24:45;95808.09;;;22.50;69.46
10978;BME280;5542;48.272;10.794;2022-08-20T10:27:12;95816.22;;;22.59;68.81
10978;BME280;5542;48.272;10.794;2022-08-20T10:29:38;95816.88;;;22.64;67.84
10978;BME280;5542;48.272;10.794;2022-08-20T10:32:09;95810.75;;;22.64;67.44
10978;BME280;5542;48.272;10.794;2022-08-20T10:34:37;95811.72;;;22.68;67.97
10978;BME280;5542;48.272;10.794;2022-08-20T10:37:04;95812.56;;;23.13;66.80
10978;BME280;5542;48.272;10.794;2022-08-20T10:39:30;95808.53;;;23.24;64.70
10978;BME280;5542;48.272;10.794;2022-08-20T10:41:58;95808.53;;;23.24;64.18
10978;BME280;5542;48.272;10.794;2022-08-20T10:44:25;95808.13;;;23.31;66.16
10978;BME280;5542;48.272;10.794;2022-08-20T10:46:52;95802.91;;;23.35;67.81
10978;BME280;5542;48.272;10.794;2022-08-20T10:49:18;95804.88;;;23.74;66.89
10978;BME280;5542;48.272;10.794;2022-08-20T10:51:45;95806.22;;;24.11;63.33
10978;BME280;5542;48.272;10.794;2022-08-20T10:54:11;95807.53;;;24.22;62.61
10978;BME280;5542;48.272;10.794;2022-08-20T10:56:38;95800.59;;;24.30;63.74
10978;BME280;5542;48.272;10.794;2022-08-20T10:59:07;95803.16;;;24.44;63.78
10978;BME280;5542;48.272;10.794;2022-08-20T11:01:33;95802.06;;;24.62;62.45
10978;BME280;5542;48.272;10.794;2022-08-20T11:04:00;95785.00;;;24.75;62.17
10978;BME280;5542;48.272;10.794;2022-08-20T11:06:27;95775.97;;;24.80;59.39
10978;BME280;5542;48.272;10.794;2022-08-20T11:08:53;95784.69;;;24.86;60.43
10978;BME280;5542;48.272;10.794;2022-08-20T11:11:20;95787.69;;;24.93;56.98
10978;BME280;5542;48.272;10.794;2022-08-20T11:13:47;95787.38;;;24.86;55.80
10978;BME280;5542;48.272;10.794;2022-08-20T11:16:15;95784.50;;;24.82;56.03
10978;BME280;5542;48.272;10.794;2022-08-20T11:18:41;95782.63;;;24.74;56.24
10978;BME280;5542;48.272;10.794;2022-08-20T11:21:08;95780.56;;;24.71;56.74
10978;BME280;5542;48.272;10.794;2022-08-20T11:23:34;95781.34;;;24.63;56.87
10978;BME280;5542;48.272;10.794;2022-08-20T11:26:01;95786.56;;;24.42;57.81
10978;BME280;5542;48.272;10.794;2022-08-20T11:28:28;95780.84;;;24.35;59.29
10978;BME280;5542;48.272;10.794;2022-08-20T11:30:57;95789.09;;;24.47;59.51
10978;BME280;5542;48.272;10.794;2022-08-20T11:33:25;95774.38;;;24.44;58.70
10978;BME280;5542;48.272;10.794;2022-08-20T11:35:52;95773.16;;;24.50;60.79
10978;BME280;5542;48.272;10.794;2022-08-20T11:38:19;95779.00;;;24.61;60.90
10978;BME280;5542;48.272;10.794;2022-08-20T11:40:46;95772.50;;;24.88;58.81
10978;BME280;5542;48.272;10.794;2022-08-20T11:43:12;95776.94;;;24.84;57.69
10978;BME280;5542;48.272;10.794;2022-08-20T11:45:39;95779.16;;;24.65;59.46
10978;BME280;5542;48.272;10.794;2022-08-20T11:48:06;95780.41;;;24.59;60.39
10978;BME280;5542;48.272;10.794;2022-08-20T11:50:34;95783.44;;;24.74;58.97
10978;BME280;5542;48.272;10.794;2022-08-20T11:53:00;95782.31;;;24.67;58.83
10978;BME280;5542;48.272;10.794;2022-08-20T11:55:27;95784.53;;;24.65;59.83
10978;BME280;5542;48.272;10.794;2022-08-20T11:57:54;95781.34;;;24.71;57.35
10978;BME280;5542;48.272;10.794;2022-08-20T12:00:21;95782.31;;;24.58;57.94
10978;BME280;5542;48.272;10.794;2022-08-20T12:02:49;95790.69;;;24.48;59.03
10978;BME280;5542;48.272;10.794;2022-08-20T12:05:17;95787.03;;;24.44;57.89
10978;BME280;5542;48.272;10.794;2022-08-20T12:07:45;95785.25;;;24.31;59.01
10978;BME280;5542;48.272;10.794;2022-08-20T12:10:13;95792.38;;;24.26;58.51
10978;BME280;5542;48.272;10.794;2022-08-20T12:12:40;95792.84;;;24.28;60.25
10978;BME280;5542;48.272;10.794;2022-08-20T12:15:08;95796.97;;;24.35;57.94
10978;BME280;5542;48.272;10.794;2022-08-20T12:17:36;95798.06;;;24.34;57.59
10978;BME280;5542;48.272;10.794;2022-08-20T12:20:11;95792.38;;;24.35;57.99
10978;BME280;5542;48.272;10.794;2022-08-20T12:22:38;95799.47;;;24.22;57.35
10978;BME280;5542;48.272;10.794;2022-08-20T12:25:07;95801.47;;;23.99;57.74
10978;BME280;5542;48.272;10.794;2022-08-20T12:27:35;95802.34;;;23.77;59.44
10978;BME280;5542;48.272;10.794;2022-08-20T12:30:08;95797.91;;;23.42;60.04
10978;BME280;5542;48.272;10.794;2022-08-20T12:32:35;95793.34;;;23.20;60.73
10978;BME280;5542;48.272;10.794;2022-08-20T12:35:03;95800.97;;;23.27;61.92
10978;BME280;5542;48.272;10.794;2022-08-20T12:37:30;95798.81;;;23.37;60.56
10978;BME280;5542;48.272;10.794;2022-08-20T12:39:59;95807.16;;;23.36;62.03
10978;BME280;5542;48.272;10.794;2022-08-20T12:42:27;95803.81;;;23.30;62.57
10978;BME280;5542;48.272;10.794;2022-08-20T12:44:54;95807.78;;;23.33;63.15
10978;BME280;5542;48.272;10.794;2022-08-20T12:47:24;95797.25;;;23.36;62.82
10978;BME280;5542;48.272;10.794;2022-08-20T12:49:54;95802.91;;;23.35;63.69
10978;BME280;5542;48.272;10.794;2022-08-20T12:52:22;95808.56;;;23.56;63.03
10978;BME280;5542;48.272;10.794;2022-08-20T12:54:49;95802.81;;;23.48;63.57
10978;BME280;5542;48.272;10.794;2022-08-20T12:57:22;95811.78;;;23.44;63.86
10978;BME280;5542;48.272;10.794;2022-08-20T12:59:50;95812.31;;;23.55;63.62
10978;BME280;5542;48.272;10.794;2022-08-20T13:02:17;95811.59;;;23.40;61.95
10978;BME280;5542;48.272;10.794;2022-08-20T13:04:43;95813.63;;;23.35;63.80